Time;durP1;ratioP1;P1;durP2;ratioP2;P2;SDS_P1;SDS_P2;PMS_P1;PMS_P2;Temp;Humidity;BMP_temperature;BMP_pressure;BME280_temperature;BME280_humidity;BME280_pressure;Samples;Min_cycle;Max_cycle;Signal;HPM_P1;HPM_P2
2022/02/02 10:02:29;;;;;;;6.50;3.10;;;4.20;99.90;;;;;;5155297;27;20201;-80
2022/02/02 10:07:48;;;;;;;6.33;3.13;;;4.40;99.90;;;;;;5153732;27;21090;-80
2022/02/02 10:10:51;;;;;;;5.90;2.90;;;4.50;99.90;;;;;;5152557;27;20170;-81
2022/02/02 10:15:49;;;;;;;9.37;3.30;;;4.50;99.90;;;;;;5153287;27;20446;-81
2022/02/02 10:20:42;;;;;;;9.47;3.23;;;4.40;99.90;;;;;;5152596;27;20194;-81
2022/02/02 10:23:09;;;;;;;16.17;4.30;;;4.20;99.90;;;;;;5151637;27;20231;-81
2022/02/02 10:25:37;;;;;;;8.90;4.30;;;4.10;99.90;;;;;;5162548;27;20188;-81
2022/02/02 10:28:13;;;;;;;10.97;3.63;;;4.10;99.90;;;;;;5165562;27;20203;-80
2022/02/02 10:30:43;;;;;;;8.37;3.30;;;4.20;99.90;;;;;;5158398;27;20618;-80
2022/02/02 10:33:14;;;;;;;7.47;3.70;;;4.10;99.90;;;;;;5153680;27;20170;-80
2022/02/02 10:35:47;;;;;;;6.53;3.23;;;4.20;99.90;;;;;;5153392;27;20185;-81
2022/02/02 10:38:16;;;;;;;9.17;3.97;;;4.20;99.90;;;;;;5153807;27;20199;-81
2022/02/02 10:40:50;;;;;;;7.80;3.40;;;4.10;99.90;;;;;;5156119;27;20504;-80
2022/02/02 10:43:34;;;;;;;8.23;2.50;;;4.20;99.90;;;;;;5161685;27;20174;-79
2022/02/02 10:46:43;;;;;;;10.60;3.20;;;4.20;99.90;;;;;;5166840;27;20223;-80
2022/02/02 10:50:05;;;;;;;9.93;3.73;;;4.30;99.90;;;;;;5161382;27;20175;-80
2022/02/02 10:54:51;;;;;;;11.23;4.33;;;4.20;99.90;;;;;;5154779;27;20637;-81
2022/02/02 10:57:35;;;;;;;10.40;5.20;;;4.20;99.90;;;;;;5153822;27;20182;-80
2022/02/02 11:00:10;;;;;;;9.57;4.00;;;4.20;99.90;;;;;;5153071;27;20176;-80
2022/02/02 11:08:05;;;;;;;8.67;2.87;;;4.20;99.90;;;;;;5155189;27;20232;-80
2022/02/02 11:10:33;;;;;;;17.27;7.67;;;4.30;99.90;;;;;;5143536;27;20192;-81
2022/02/02 11:12:59;;;;;;;12.37;4.83;;;4.40;99.90;;;;;;5140297;27;20176;-81
2022/02/02 11:15:45;;;;;;;9.43;2.73;;;4.50;99.90;;;;;;5140137;27;20205;-81
2022/02/02 11:18:20;;;;;;;7.20;3.17;;;4.70;99.90;;;;;;5141477;27;20494;-81
2022/02/02 11:20:46;;;;;;;9.97;4.43;;;4.80;99.90;;;;;;5139871;27;20567;-81
2022/02/02 11:23:12;;;;;;;17.80;4.40;;;4.90;99.90;;;;;;5140051;27;20173;-81
2022/02/02 11:25:54;;;;;;;12.00;3.77;;;4.80;99.90;;;;;;5140939;27;20166;-81
2022/02/02 11:28:27;;;;;;;9.37;3.63;;;4.80;99.90;;;;;;5140235;27;20291;-81
2022/02/02 11:31:04;;;;;;;21.50;11.07;;;4.80;99.90;;;;;;5148301;27;20238;-81
2022/02/02 11:33:29;;;;;;;11.10;4.47;;;4.80;99.90;;;;;;5138833;27;20177;-81
2022/02/02 11:35:57;;;;;;;23.43;9.37;;;4.80;99.90;;;;;;5138395;27;20517;-81
2022/02/02 11:38:31;;;;;;;55.07;22.97;;;4.90;99.90;;;;;;5138198;27;20199;-81
2022/02/02 11:41:17;;;;;;;21.37;6.33;;;4.90;99.90;;;;;;5138650;27;20257;-82
2022/02/02 11:46:40;;;;;;;129.53;61.33;;;4.80;99.90;;;;;;5139777;27;20175;-81
2022/02/02 11:49:14;;;;;;;251.73;115.33;;;4.80;99.90;;;;;;5138506;27;20230;-81
2022/02/02 11:51:41;;;;;;;22.43;11.17;;;4.70;99.90;;;;;;5139464;27;20643;-81
2022/02/02 11:54:09;;;;;;;10.80;3.80;;;4.70;99.90;;;;;;5141624;27;20260;-81
2022/02/02 11:57:01;;;;;;;13.67;5.80;;;4.60;99.90;;;;;;5140273;27;20184;-82
2022/02/02 12:02:21;;;;;;;9.30;4.10;;;4.40;99.90;;;;;;5139667;27;20224;-81
2022/02/02 12:05:07;;;;;;;15.50;4.83;;;4.40;99.90;;;;;;5140246;27;20147;-81
2022/02/02 12:08:11;;;;;;;12.43;5.00;;;4.20;99.90;;;;;;5136828;27;20664;-81
2022/02/02 12:57:19;;;;;;;11.43;3.07;;;4.10;99.90;;;;;;5158181;27;20217;-82
2022/02/02 13:02:23;;;;;;;9.60;3.93;;;4.00;99.90;;;;;;5158016;27;20164;-81
2022/02/02 13:04:56;;;;;;;13.27;2.90;;;3.80;99.90;;;;;;5156446;27;20168;-82
2022/02/02 13:07:25;;;;;;;6.37;2.97;;;3.70;99.90;;;;;;5156949;27;20226;-81
2022/02/02 13:09:52;;;;;;;5.73;2.37;;;3.30;99.90;;;;;;5158018;27;20172;-81
2022/02/02 13:12:40;;;;;;;6.80;2.73;;;3.20;99.90;;;;;;5159633;27;20172;-80
2022/02/02 13:18:15;;;;;;;4.80;2.30;;;3.20;99.90;;;;;;5156854;27;20509;-80
2022/02/02 13:23:25;;;;;;;7.00;3.20;;;3.40;99.90;;;;;;5156553;27;20161;-80
2022/02/02 13:25:59;;;;;;;9.67;3.20;;;3.50;99.90;;;;;;5154881;27;20154;-81
2022/02/02 14:06:32;;;;;;;11.07;5.53;;;4.40;99.90;;;;;;5157591;27;20158;-80
2022/02/02 14:25:34;;;;;;;13.43;4.70;;;4.40;99.90;;;;;;5157782;27;20167;-79
2022/02/02 14:33:30;;;;;;;14.87;4.13;;;4.30;99.90;;;;;;5169378;27;20220;-80
2022/02/02 14:36:01;;;;;;;7.87;3.40;;;4.40;99.90;;;;;;5169669;27;20178;-81
2022/02/02 14:38:34;;;;;;;7.47;3.40;;;4.40;99.90;;;;;;5158356;27;20209;-81
2022/02/02 14:41:09;;;;;;;15.90;3.87;;;4.40;99.90;;;;;;5155137;27;20168;-81
2022/02/02 14:43:42;;;;;;;7.47;3.57;;;4.40;99.90;;;;;;5154753;27;20157;-80
2022/02/02 14:46:11;;;;;;;15.33;4.00;;;4.30;99.90;;;;;;5159502;27;20172;-80
2022/02/02 14:48:49;;;;;;;9.40;3.53;;;4.30;99.90;;;;;;5159187;27;20297;-81
2022/02/02 14:54:09;;;;;;;14.37;4.97;;;4.40;99.90;;;;;;5160152;27;20253;-80
